Kivalina Airport Kivalina US
ICAO: PAVL
IATA:
Category: Medium
Scheduled Services:

Elevation: 13 ft
TransAlt. 18000 ft.

Airport Communications:
ANCHORAGE CNTR:119.2
ASOS:135.8
CTAF/UNICOM:122.8
KOTZEBUE RDO:122.55

PAVL Zoom In..

Runways:

(A) RW 12 length 3000 ft width 60 ft
---- / hdg 122

(B) RW 30 length 3000 ft width 60 ft
---- / hdg 302

Location; PAVL
Day. 23 / Time. 07.53 Zulu
* Altimeter: 30.09
* Temperature: 13° c. 55.4°f.
* Wind from: 180° Speed 03 kn.
Dewpoint: 12° c.
Visibility: 7 Statute Miles.
Clouds: Few 3800 ft.
Clouds: Overcast 11000 ft.

PAVL 230753Z AUTO 18003KT 7SM FEW038 OVC110 13/12 A3009 RMK AO2 SLP191 T01330122 TSNO $


Wind From 180°
Speed 03 kn.

 
 
jpsmedia.com for Web Design worldairports.se 2018   terms of use